sensor_id;sensor_type;location;lat;lon;timestamp;pressure;altitude;pressure_sealevel;temperature
69597;BMP180;56802;51.184;-115.558;2022-10-16T00:01:50;87000.00;;;15.80
69597;BMP180;56802;51.184;-115.558;2022-10-16T00:04:19;86996.00;;;15.80
69597;BMP180;56802;51.184;-115.558;2022-10-16T00:06:49;86997.60;;;15.80
69597;BMP180;56802;51.184;-115.558;2022-10-16T00:09:19;87003.40;;;15.70
69597;BMP180;56802;51.184;-115.558;2022-10-16T00:11:48;86999.40;;;15.60
69597;BMP180;56802;51.184;-115.558;2022-10-16T00:14:18;87004.60;;;15.60
69597;BMP180;56802;51.184;-115.558;2022-10-16T00:16:47;87009.00;;;15.50
69597;BMP180;56802;51.184;-115.558;2022-10-16T00:19:17;87014.40;;;15.50
69597;BMP180;56802;51.184;-115.558;2022-10-16T00:21:46;87013.00;;;15.40
69597;BMP180;56802;51.184;-115.558;2022-10-16T00:24:15;87017.00;;;15.40
69597;BMP180;56802;51.184;-115.558;2022-10-16T00:26:50;87021.40;;;15.36
69597;BMP180;56802;51.184;-115.558;2022-10-16T00:29:20;87017.80;;;15.30
69597;BMP180;56802;51.184;-115.558;2022-10-16T00:31:49;87016.20;;;15.20
69597;BMP180;56802;51.184;-115.558;2022-10-16T00:34:18;87016.60;;;15.10
69597;BMP180;56802;51.184;-115.558;2022-10-16T00:36:47;87020.40;;;15.00
69597;BMP180;56802;51.184;-115.558;2022-10-16T00:39:16;87020.00;;;14.90
69597;BMP180;56802;51.184;-115.558;2022-10-16T00:41:46;87018.40;;;14.76
69597;BMP180;56802;51.184;-115.558;2022-10-16T00:44:52;87030.00;;;14.66
69597;BMP180;56802;51.184;-115.558;2022-10-16T00:47:38;87035.00;;;14.50
69597;BMP180;56802;51.184;-115.558;2022-10-16T00:50:33;87029.20;;;14.40
69597;BMP180;56802;51.184;-115.558;2022-10-16T00:53:03;87031.00;;;14.30
69597;BMP180;56802;51.184;-115.558;2022-10-16T00:55:33;87032.00;;;14.10
69597;BMP180;56802;51.184;-115.558;2022-10-16T00:58:08;87028.40;;;14.00
69597;BMP180;56802;51.184;-115.558;2022-10-16T01:00:38;87033.40;;;13.90
69597;BMP180;56802;51.184;-115.558;2022-10-16T01:03:31;87035.60;;;13.80
69597;BMP180;56802;51.184;-115.558;2022-10-16T01:06:36;87041.00;;;13.76
69597;BMP180;56802;51.184;-115.558;2022-10-16T01:15:28;87050.20;;;13.40
69597;BMP180;56802;51.184;-115.558;2022-10-16T01:21:26;87050.60;;;13.10
69597;BMP180;56802;51.184;-115.558;2022-10-16T01:27:23;87056.40;;;12.70
69597;BMP180;56802;51.184;-115.558;2022-10-16T01:30:16;87062.40;;;12.50
69597;BMP180;56802;51.184;-115.558;2022-10-16T01:33:00;87066.40;;;12.30
69597;BMP180;56802;51.184;-115.558;2022-10-16T01:35:45;87071.00;;;12.10
69597;BMP180;56802;51.184;-115.558;2022-10-16T01:40:58;87080.00;;;11.80
69597;BMP180;56802;51.184;-115.558;2022-10-16T01:43:37;87082.00;;;11.70
69597;BMP180;56802;51.184;-115.558;2022-10-16T01:46:10;87077.00;;;11.60
69597;BMP180;56802;51.184;-115.558;2022-10-16T01:48:42;87077.40;;;11.50
69597;BMP180;56802;51.184;-115.558;2022-10-16T01:51:15;87081.20;;;11.40
69597;BMP180;56802;51.184;-115.558;2022-10-16T01:53:53;87089.80;;;11.30
69597;BMP180;56802;51.184;-115.558;2022-10-16T01:56:25;87085.60;;;11.20
69597;BMP180;56802;51.184;-115.558;2022-10-16T01:59:13;87086.40;;;11.10
69597;BMP180;56802;51.184;-115.558;2022-10-16T02:01:50;87095.60;;;11.00
69597;BMP180;56802;51.184;-115.558;2022-10-16T02:04:36;87097.20;;;10.90
69597;BMP180;56802;51.184;-115.558;2022-10-16T02:07:06;87095.80;;;10.80
69597;BMP180;56802;51.184;-115.558;2022-10-16T02:09:36;87099.40;;;10.70
69597;BMP180;56802;51.184;-115.558;2022-10-16T02:12:28;87102.00;;;10.62
69597;BMP180;56802;51.184;-115.558;2022-10-16T02:14:58;87105.20;;;10.56
69597;BMP180;56802;51.184;-115.558;2022-10-16T02:17:28;87100.60;;;10.50
69597;BMP180;56802;51.184;-115.558;2022-10-16T02:19:58;87102.60;;;10.40
69597;BMP180;56802;51.184;-115.558;2022-10-16T02:22:35;87110.40;;;10.36
69597;BMP180;56802;51.184;-115.558;2022-10-16T02:25:22;87113.40;;;10.30
69597;BMP180;56802;51.184;-115.558;2022-10-16T02:30:52;87122.60;;;10.10
69597;BMP180;56802;51.184;-115.558;2022-10-16T02:33:27;87130.60;;;10.00
69597;BMP180;56802;51.184;-115.558;2022-10-16T02:35:58;87135.60;;;9.90
69597;BMP180;56802;51.184;-115.558;2022-10-16T02:38:29;87132.00;;;9.80
69597;BMP180;56802;51.184;-115.558;2022-10-16T02:40:59;87133.40;;;9.70
69597;BMP180;56802;51.184;-115.558;2022-10-16T02:43:29;87139.80;;;9.64
69597;BMP180;56802;51.184;-115.558;2022-10-16T02:45:58;87148.40;;;9.50
69597;BMP180;56802;51.184;-115.558;2022-10-16T02:48:27;87152.20;;;9.40
69597;BMP180;56802;51.184;-115.558;2022-10-16T02:50:56;87143.20;;;9.30
69597;BMP180;56802;51.184;-115.558;2022-10-16T02:53:26;87147.00;;;9.20
69597;BMP180;56802;51.184;-115.558;2022-10-16T02:55:55;87146.20;;;9.18
69597;BMP180;56802;51.184;-115.558;2022-10-16T02:58:24;87149.00;;;9.10
69597;BMP180;56802;51.184;-115.558;2022-10-16T03:00:55;87142.40;;;9.00
69597;BMP180;56802;51.184;-115.558;2022-10-16T03:03:25;87146.40;;;8.90
69597;BMP180;56802;51.184;-115.558;2022-10-16T03:05:54;87152.00;;;8.90
69597;BMP180;56802;51.184;-115.558;2022-10-16T03:08:23;87148.20;;;8.80
69597;BMP180;56802;51.184;-115.558;2022-10-16T03:10:53;87150.40;;;8.70
69597;BMP180;56802;51.184;-115.558;2022-10-16T03:13:22;87151.40;;;8.70
69597;BMP180;56802;51.184;-115.558;2022-10-16T03:15:52;87150.40;;;8.60
69597;BMP180;56802;51.184;-115.558;2022-10-16T03:18:21;87149.20;;;8.44
69597;BMP180;56802;51.184;-115.558;2022-10-16T03:20:50;87151.80;;;8.40
69597;BMP180;56802;51.184;-115.558;2022-10-16T03:23:20;87156.20;;;8.30
69597;BMP180;56802;51.184;-115.558;2022-10-16T03:25:49;87156.20;;;8.20
69597;BMP180;56802;51.184;-115.558;2022-10-16T03:28:18;87151.40;;;8.00
69597;BMP180;56802;51.184;-115.558;2022-10-16T03:30:47;87159.00;;;7.90
69597;BMP180;56802;51.184;-115.558;2022-10-16T03:33:17;87160.00;;;7.80
69597;BMP180;56802;51.184;-115.558;2022-10-16T03:35:53;87161.20;;;7.80
69597;BMP180;56802;51.184;-115.558;2022-10-16T03:38:22;87163.60;;;7.70
69597;BMP180;56802;51.184;-115.558;2022-10-16T03:40:52;87161.40;;;7.70
69597;BMP180;56802;51.184;-115.558;2022-10-16T03:43:21;87168.40;;;7.70
69597;BMP180;56802;51.184;-115.558;2022-10-16T03:45:54;87172.20;;;7.60
69597;BMP180;56802;51.184;-115.558;2022-10-16T03:48:23;87178.80;;;7.50
69597;BMP180;56802;51.184;-115.558;2022-10-16T03:50:53;87184.40;;;7.40
69597;BMP180;56802;51.184;-115.558;2022-10-16T03:53:26;87185.00;;;7.30
69597;BMP180;56802;51.184;-115.558;2022-10-16T03:55:55;87186.80;;;7.22
69597;BMP180;56802;51.184;-115.558;2022-10-16T03:58:24;87188.80;;;7.20
69597;BMP180;56802;51.184;-115.558;2022-10-16T04:00:54;87187.60;;;7.18
69597;BMP180;56802;51.184;-115.558;2022-10-16T04:03:23;87187.80;;;7.10
69597;BMP180;56802;51.184;-115.558;2022-10-16T04:05:53;87186.80;;;7.10
69597;BMP180;56802;51.184;-115.558;2022-10-16T04:08:23;87189.60;;;7.00
69597;BMP180;56802;51.184;-115.558;2022-10-16T04:10:52;87189.00;;;7.00
69597;BMP180;56802;51.184;-115.558;2022-10-16T04:13:21;87185.20;;;6.94
69597;BMP180;56802;51.184;-115.558;2022-10-16T04:15:50;87191.80;;;6.90
69597;BMP180;56802;51.184;-115.558;2022-10-16T04:18:20;87194.80;;;6.90
69597;BMP180;56802;51.184;-115.558;2022-10-16T04:20:49;87200.80;;;6.80
69597;BMP180;56802;51.184;-115.558;2022-10-16T04:23:19;87198.40;;;6.70
69597;BMP180;56802;51.184;-115.558;2022-10-16T04:25:48;87194.80;;;6.62
69597;BMP180;56802;51.184;-115.558;2022-10-16T04:28:17;87200.40;;;6.60
69597;BMP180;56802;51.184;-115.558;2022-10-16T04:30:47;87203.60;;;6.50
69597;BMP180;56802;51.184;-115.558;2022-10-16T04:33:16;87208.40;;;6.40
69597;BMP180;56802;51.184;-115.558;2022-10-16T04:35:45;87206.60;;;6.40
69597;BMP180;56802;51.184;-115.558;2022-10-16T04:38:14;87210.00;;;6.30
69597;BMP180;56802;51.184;-115.558;2022-10-16T04:40:43;87210.80;;;6.20
69597;BMP180;56802;51.184;-115.558;2022-10-16T04:43:13;87212.80;;;6.12
69597;BMP180;56802;51.184;-115.558;2022-10-16T04:45:42;87212.00;;;6.10
69597;BMP180;56802;51.184;-115.558;2022-10-16T04:48:12;87211.60;;;6.10
69597;BMP180;56802;51.184;-115.558;2022-10-16T04:50:41;87212.00;;;6.10
69597;BMP180;56802;51.184;-115.558;2022-10-16T04:53:11;87210.80;;;6.00
69597;BMP180;56802;51.184;-115.558;2022-10-16T04:55:42;87218.60;;;6.00
69597;BMP180;56802;51.184;-115.558;2022-10-16T04:58:12;87212.60;;;5.98
69597;BMP180;56802;51.184;-115.558;2022-10-16T05:00:41;87211.40;;;5.90
69597;BMP180;56802;51.184;-115.558;2022-10-16T05:03:11;87211.80;;;5.88
69597;BMP180;56802;51.184;-115.558;2022-10-16T05:05:45;87211.40;;;5.80
69597;BMP180;56802;51.184;-115.558;2022-10-16T05:08:16;87204.80;;;5.80
69597;BMP180;56802;51.184;-115.558;2022-10-16T05:10:45;87207.40;;;5.80
69597;BMP180;56802;51.184;-115.558;2022-10-16T05:13:14;87211.40;;;5.80
69597;BMP180;56802;51.184;-115.558;2022-10-16T05:15:48;87213.00;;;5.70
69597;BMP180;56802;51.184;-115.558;2022-10-16T05:18:17;87217.60;;;5.60
69597;BMP180;56802;51.184;-115.558;2022-10-16T05:20:46;87218.40;;;5.40
69597;BMP180;56802;51.184;-115.558;2022-10-16T05:23:15;87220.80;;;5.30
69597;BMP180;56802;51.184;-115.558;2022-10-16T05:25:54;87224.80;;;5.30
69597;BMP180;56802;51.184;-115.558;2022-10-16T05:28:28;87219.40;;;5.20
69597;BMP180;56802;51.184;-115.558;2022-10-16T05:30:58;87222.60;;;5.20
69597;BMP180;56802;51.184;-115.558;2022-10-16T05:33:28;87223.60;;;5.10
69597;BMP180;56802;51.184;-115.558;2022-10-16T05:35:57;87228.40;;;5.10
69597;BMP180;56802;51.184;-115.558;2022-10-16T05:38:29;87231.60;;;5.08
69597;BMP180;56802;51.184;-115.558;2022-10-16T05:40:58;87232.80;;;5.00
69597;BMP180;56802;51.184;-115.558;2022-10-16T05:43:29;87231.00;;;5.04
69597;BMP180;56802;51.184;-115.558;2022-10-16T05:46:04;87232.60;;;5.08
69597;BMP180;56802;51.184;-115.558;2022-10-16T05:48:34;87231.60;;;5.00
69597;BMP180;56802;51.184;-115.558;2022-10-16T05:51:06;87233.60;;;5.00
69597;BMP180;56802;51.184;-115.558;2022-10-16T05:53:38;87233.60;;;4.90
69597;BMP180;56802;51.184;-115.558;2022-10-16T05:56:10;87236.80;;;4.80
69597;BMP180;56802;51.184;-115.558;2022-10-16T05:58:41;87240.00;;;4.70
69597;BMP180;56802;51.184;-115.558;2022-10-16T06:01:18;87238.20;;;4.60
69597;BMP180;56802;51.184;-115.558;2022-10-16T06:03:47;87241.20;;;4.50
69597;BMP180;56802;51.184;-115.558;2022-10-16T06:06:21;87238.60;;;4.40
69597;BMP180;56802;51.184;-115.558;2022-10-16T06:08:52;87248.60;;;4.38
69597;BMP180;56802;51.184;-115.558;2022-10-16T06:11:28;87250.40;;;4.32
69597;BMP180;56802;51.184;-115.558;2022-10-16T06:14:01;87256.60;;;4.30
69597;BMP180;56802;51.184;-115.558;2022-10-16T06:16:37;87261.80;;;4.30
69597;BMP180;56802;51.184;-115.558;2022-10-16T06:19:06;87254.40;;;4.30
69597;BMP180;56802;51.184;-115.558;2022-10-16T06:21:36;87256.80;;;4.30
69597;BMP180;56802;51.184;-115.558;2022-10-16T06:24:06;87262.80;;;4.30
69597;BMP180;56802;51.184;-115.558;2022-10-16T06:26:35;87255.20;;;4.30
69597;BMP180;56802;51.184;-115.558;2022-10-16T06:29:05;87256.60;;;4.26
69597;BMP180;56802;51.184;-115.558;2022-10-16T06:31:34;87252.40;;;4.20
69597;BMP180;56802;51.184;-115.558;2022-10-16T06:34:03;87254.40;;;4.20
69597;BMP180;56802;51.184;-115.558;2022-10-16T06:36:38;87253.00;;;4.28
69597;BMP180;56802;51.184;-115.558;2022-10-16T06:39:08;87255.80;;;4.30
69597;BMP180;56802;51.184;-115.558;2022-10-16T06:41:37;87256.00;;;4.40
69597;BMP180;56802;51.184;-115.558;2022-10-16T06:44:07;87257.00;;;4.50
69597;BMP180;56802;51.184;-115.558;2022-10-16T06:46:36;87263.00;;;4.56
69597;BMP180;56802;51.184;-115.558;2022-10-16T06:49:06;87264.40;;;4.60
69597;BMP180;56802;51.184;-115.558;2022-10-16T06:51:35;87260.80;;;4.70
69597;BMP180;56802;51.184;-115.558;2022-10-16T06:54:10;87270.80;;;4.70
69597;BMP180;56802;51.184;-115.558;2022-10-16T06:56:40;87280.80;;;4.78
69597;BMP180;56802;51.184;-115.558;2022-10-16T06:59:09;87283.60;;;4.80
69597;BMP180;56802;51.184;-115.558;2022-10-16T07:01:38;87283.60;;;4.80
69597;BMP180;56802;51.184;-115.558;2022-10-16T07:04:07;87285.60;;;4.74
69597;BMP180;56802;51.184;-115.558;2022-10-16T07:06:37;87289.60;;;4.70
69597;BMP180;56802;51.184;-115.558;2022-10-16T07:09:09;87289.60;;;4.60
69597;BMP180;56802;51.184;-115.558;2022-10-16T07:11:40;87298.20;;;4.40
69597;BMP180;56802;51.184;-115.558;2022-10-16T07:14:21;87293.00;;;4.30
69597;BMP180;56802;51.184;-115.558;2022-10-16T07:16:51;87293.60;;;4.20
69597;BMP180;56802;51.184;-115.558;2022-10-16T07:19:20;87291.40;;;4.10
69597;BMP180;56802;51.184;-115.558;2022-10-16T07:21:49;87290.20;;;4.00
69597;BMP180;56802;51.184;-115.558;2022-10-16T07:24:19;87286.20;;;4.00
69597;BMP180;56802;51.184;-115.558;2022-10-16T07:26:48;87290.00;;;4.06
69597;BMP180;56802;51.184;-115.558;2022-10-16T07:29:21;87287.40;;;4.10
69597;BMP180;56802;51.184;-115.558;2022-10-16T07:31:54;87287.80;;;4.10
69597;BMP180;56802;51.184;-115.558;2022-10-16T07:34:23;87288.80;;;4.10
69597;BMP180;56802;51.184;-115.558;2022-10-16T07:36:52;87289.00;;;4.10
69597;BMP180;56802;51.184;-115.558;2022-10-16T07:39:22;87294.60;;;4.10
69597;BMP180;56802;51.184;-115.558;2022-10-16T07:41:51;87295.00;;;4.10
69597;BMP180;56802;51.184;-115.558;2022-10-16T07:44:21;87291.80;;;4.10
69597;BMP180;56802;51.184;-115.558;2022-10-16T07:46:50;87290.40;;;4.10
69597;BMP180;56802;51.184;-115.558;2022-10-16T07:49:19;87287.60;;;4.12
69597;BMP180;56802;51.184;-115.558;2022-10-16T07:51:49;87290.00;;;4.20
69597;BMP180;56802;51.184;-115.558;2022-10-16T07:54:18;87288.80;;;4.20
69597;BMP180;56802;51.184;-115.558;2022-10-16T07:56:47;87290.00;;;4.30
69597;BMP180;56802;51.184;-115.558;2022-10-16T07:59:16;87286.40;;;4.36
69597;BMP180;56802;51.184;-115.558;2022-10-16T08:01:45;87290.80;;;4.40
69597;BMP180;56802;51.184;-115.558;2022-10-16T08:04:15;87293.00;;;4.40
69597;BMP180;56802;51.184;-115.558;2022-10-16T08:06:44;87294.20;;;4.40
69597;BMP180;56802;51.184;-115.558;2022-10-16T08:09:13;87294.20;;;4.40
69597;BMP180;56802;51.184;-115.558;2022-10-16T08:11:42;87298.80;;;4.40
69597;BMP180;56802;51.184;-115.558;2022-10-16T08:14:12;87302.80;;;4.40
69597;BMP180;56802;51.184;-115.558;2022-10-16T08:16:41;87305.20;;;4.40
69597;BMP180;56802;51.184;-115.558;2022-10-16T08:19:10;87307.80;;;4.40
69597;BMP180;56802;51.184;-115.558;2022-10-16T08:21:39;87304.40;;;4.34
69597;BMP180;56802;51.184;-115.558;2022-10-16T08:24:08;87307.00;;;4.30
69597;BMP180;56802;51.184;-115.558;2022-10-16T08:26:38;87306.40;;;4.28
69597;BMP180;56802;51.184;-115.558;2022-10-16T08:29:07;87308.20;;;4.20
69597;BMP180;56802;51.184;-115.558;2022-10-16T08:31:37;87309.80;;;4.20
69597;BMP180;56802;51.184;-115.558;2022-10-16T08:34:07;87306.60;;;4.10
69597;BMP180;56802;51.184;-115.558;2022-10-16T08:36:36;87310.80;;;4.08
69597;BMP180;56802;51.184;-115.558;2022-10-16T08:39:08;87308.20;;;4.00
69597;BMP180;56802;51.184;-115.558;2022-10-16T08:47:54;87305.20;;;3.90
69597;BMP180;56802;51.184;-115.558;2022-10-16T08:50:29;87305.40;;;3.88
69597;BMP180;56802;51.184;-115.558;2022-10-16T08:52:59;87311.40;;;3.86
69597;BMP180;56802;51.184;-115.558;2022-10-16T08:55:38;87307.20;;;3.84
69597;BMP180;56802;51.184;-115.558;2022-10-16T08:58:25;87314.20;;;3.90
69597;BMP180;56802;51.184;-115.558;2022-10-16T09:01:00;87313.80;;;3.90
69597;BMP180;56802;51.184;-115.558;2022-10-16T09:06:45;87315.00;;;3.90
69597;BMP180;56802;51.184;-115.558;2022-10-16T09:13:14;87320.80;;;3.90
69597;BMP180;56802;51.184;-115.558;2022-10-16T09:21:36;87321.00;;;3.80
69597;BMP180;56802;51.184;-115.558;2022-10-16T09:24:23;87320.20;;;3.80
69597;BMP180;56802;51.184;-115.558;2022-10-16T09:26:55;87319.00;;;3.70
69597;BMP180;56802;51.184;-115.558;2022-10-16T09:29:25;87320.20;;;3.70
69597;BMP180;56802;51.184;-115.558;2022-10-16T09:32:11;87318.80;;;3.70
69597;BMP180;56802;51.184;-115.558;2022-10-16T09:34:55;87317.40;;;3.60
69597;BMP180;56802;51.184;-115.558;2022-10-16T09:37:26;87316.40;;;3.52
69597;BMP180;56802;51.184;-115.558;2022-10-16T09:39:56;87313.60;;;3.50
69597;BMP180;56802;51.184;-115.558;2022-10-16T09:42:37;87309.60;;;3.48
69597;BMP180;56802;51.184;-115.558;2022-10-16T09:45:23;87317.40;;;3.40
69597;BMP180;56802;51.184;-115.558;2022-10-16T09:47:53;87316.60;;;3.40
69597;BMP180;56802;51.184;-115.558;2022-10-16T09:50:29;87315.40;;;3.40
69597;BMP180;56802;51.184;-115.558;2022-10-16T09:53:13;87313.80;;;3.30
69597;BMP180;56802;51.184;-115.558;2022-10-16T09:55:53;87311.20;;;3.30
69597;BMP180;56802;51.184;-115.558;2022-10-16T09:58:23;87310.00;;;3.30
69597;BMP180;56802;51.184;-115.558;2022-10-16T10:00:55;87309.40;;;3.30
69597;BMP180;56802;51.184;-115.558;2022-10-16T10:03:46;87309.60;;;3.30
69597;BMP180;56802;51.184;-115.558;2022-10-16T10:06:23;87311.00;;;3.30
69597;BMP180;56802;51.184;-115.558;2022-10-16T10:09:15;87306.40;;;3.30
69597;BMP180;56802;51.184;-115.558;2022-10-16T10:11:59;87308.60;;;3.30
69597;BMP180;56802;51.184;-115.558;2022-10-16T10:14:38;87317.80;;;3.20
69597;BMP180;56802;51.184;-115.558;2022-10-16T10:17:24;87312.00;;;3.20
69597;BMP180;56802;51.184;-115.558;2022-10-16T10:20:28;87310.40;;;3.20
69597;BMP180;56802;51.184;-115.558;2022-10-16T10:22:59;87310.00;;;3.10
69597;BMP180;56802;51.184;-115.558;2022-10-16T10:31:44;87310.20;;;2.94
69597;BMP180;56802;51.184;-115.558;2022-10-16T10:37:36;87308.00;;;2.80
69597;BMP180;56802;51.184;-115.558;2022-10-16T10:46:18;87313.20;;;2.70
69597;BMP180;56802;51.184;-115.558;2022-10-16T10:49:06;87309.80;;;2.70
69597;BMP180;56802;51.184;-115.558;2022-10-16T10:57:30;87304.20;;;2.60
69597;BMP180;56802;51.184;-115.558;2022-10-16T11:05:54;87303.40;;;2.60
69597;BMP180;56802;51.184;-115.558;2022-10-16T11:11:48;87302.60;;;2.52
69597;BMP180;56802;51.184;-115.558;2022-10-16T11:17:15;87305.00;;;2.50
69597;BMP180;56802;51.184;-115.558;2022-10-16T11:20:20;87304.60;;;2.50
69597;BMP180;56802;51.184;-115.558;2022-10-16T11:25:36;87300.40;;;2.50
69597;BMP180;56802;51.184;-115.558;2022-10-16T11:28:34;87298.60;;;2.50
69597;BMP180;56802;51.184;-115.558;2022-10-16T11:31:34;87297.80;;;2.50
69597;BMP180;56802;51.184;-115.558;2022-10-16T11:35:02;87295.20;;;2.50
69597;BMP180;56802;51.184;-115.558;2022-10-16T11:37:43;87295.00;;;2.50
69597;BMP180;56802;51.184;-115.558;2022-10-16T11:40:38;87295.00;;;2.50
69597;BMP180;56802;51.184;-115.558;2022-10-16T11:43:26;87292.00;;;2.40
69597;BMP180;56802;51.184;-115.558;2022-10-16T11:46:03;87291.00;;;2.40
69597;BMP180;56802;51.184;-115.558;2022-10-16T11:48:45;87290.00;;;2.30
69597;BMP180;56802;51.184;-115.558;2022-10-16T11:54:59;87291.40;;;2.20
69597;BMP180;56802;51.184;-115.558;2022-10-16T11:57:39;87295.80;;;2.20
69597;BMP180;56802;51.184;-115.558;2022-10-16T12:00:35;87290.00;;;2.12
69597;BMP180;56802;51.184;-115.558;2022-10-16T12:06:49;87297.60;;;2.10
69597;BMP180;56802;51.184;-115.558;2022-10-16T12:09:27;87294.40;;;2.10
69597;BMP180;56802;51.184;-115.558;2022-10-16T12:11:59;87294.00;;;2.10
69597;BMP180;56802;51.184;-115.558;2022-10-16T12:14:41;87287.60;;;2.10
69597;BMP180;56802;51.184;-115.558;2022-10-16T12:17:38;87286.60;;;2.10
69597;BMP180;56802;51.184;-115.558;2022-10-16T12:23:05;87278.20;;;2.00
69597;BMP180;56802;51.184;-115.558;2022-10-16T12:25:40;87279.80;;;1.98
69597;BMP180;56802;51.184;-115.558;2022-10-16T12:28:26;87278.40;;;1.90
69597;BMP180;56802;51.184;-115.558;2022-10-16T12:31:03;87278.00;;;1.90
69597;BMP180;56802;51.184;-115.558;2022-10-16T12:36:33;87284.60;;;1.80
69597;BMP180;56802;51.184;-115.558;2022-10-16T12:39:03;87288.20;;;1.80
69597;BMP180;56802;51.184;-115.558;2022-10-16T12:41:36;87286.40;;;1.80
69597;BMP180;56802;51.184;-115.558;2022-10-16T12:44:24;87287.80;;;1.80
69597;BMP180;56802;51.184;-115.558;2022-10-16T12:46:55;87286.80;;;1.80
69597;BMP180;56802;51.184;-115.558;2022-10-16T12:49:37;87295.80;;;1.80
69597;BMP180;56802;51.184;-115.558;2022-10-16T12:52:37;87295.00;;;1.84
69597;BMP180;56802;51.184;-115.558;2022-10-16T12:55:18;87297.80;;;1.80
69597;BMP180;56802;51.184;-115.558;2022-10-16T13:01:36;87299.60;;;1.80
69597;BMP180;56802;51.184;-115.558;2022-10-16T13:04:17;87289.20;;;1.80
69597;BMP180;56802;51.184;-115.558;2022-10-16T13:07:24;87294.80;;;1.80
69597;BMP180;56802;51.184;-115.558;2022-10-16T13:13:16;87293.20;;;1.80
69597;BMP180;56802;51.184;-115.558;2022-10-16T13:21:48;87303.40;;;1.70
69597;BMP180;56802;51.184;-115.558;2022-10-16T13:24:55;87296.40;;;1.70
69597;BMP180;56802;51.184;-115.558;2022-10-16T13:30:27;87290.00;;;1.70
69597;BMP180;56802;51.184;-115.558;2022-10-16T13:35:54;87286.20;;;1.70
69597;BMP180;56802;51.184;-115.558;2022-10-16T13:38:35;87281.60;;;1.70
69597;BMP180;56802;51.184;-115.558;2022-10-16T13:41:16;87279.00;;;1.70
69597;BMP180;56802;51.184;-115.558;2022-10-16T13:43:53;87289.00;;;1.70
69597;BMP180;56802;51.184;-115.558;2022-10-16T13:46:26;87283.40;;;1.70
69597;BMP180;56802;51.184;-115.558;2022-10-16T13:49:15;87288.00;;;1.70
69597;BMP180;56802;51.184;-115.558;2022-10-16T13:51:59;87283.80;;;1.70
69597;BMP180;56802;51.184;-115.558;2022-10-16T13:54:28;87286.80;;;1.70
69597;BMP180;56802;51.184;-115.558;2022-10-16T13:57:05;87286.60;;;1.60
69597;BMP180;56802;51.184;-115.558;2022-10-16T13:59:54;87287.40;;;1.60
69597;BMP180;56802;51.184;-115.558;2022-10-16T14:02:31;87284.80;;;1.60
69597;BMP180;56802;51.184;-115.558;2022-10-16T14:05:10;87284.60;;;1.60
69597;BMP180;56802;51.184;-115.558;2022-10-16T14:07:39;87281.40;;;1.60
69597;BMP180;56802;51.184;-115.558;2022-10-16T14:10:29;87277.20;;;1.60
69597;BMP180;56802;51.184;-115.558;2022-10-16T14:13:05;87277.40;;;1.60
69597;BMP180;56802;51.184;-115.558;2022-10-16T14:15:37;87277.40;;;1.60
69597;BMP180;56802;51.184;-115.558;2022-10-16T14:18:07;87278.80;;;1.60
69597;BMP180;56802;51.184;-115.558;2022-10-16T14:20:36;87275.80;;;1.60
69597;BMP180;56802;51.184;-115.558;2022-10-16T14:23:32;87280.60;;;1.60
69597;BMP180;56802;51.184;-115.558;2022-10-16T14:28:40;87282.20;;;1.70
69597;BMP180;56802;51.184;-115.558;2022-10-16T14:31:37;87281.20;;;1.70
69597;BMP180;56802;51.184;-115.558;2022-10-16T14:34:33;87281.00;;;1.70
69597;BMP180;56802;51.184;-115.558;2022-10-16T14:37:28;87284.40;;;1.70
69597;BMP180;56802;51.184;-115.558;2022-10-16T14:39:58;87288.00;;;1.70
69597;BMP180;56802;51.184;-115.558;2022-10-16T14:42:29;87284.60;;;1.70
69597;BMP180;56802;51.184;-115.558;2022-10-16T14:44:59;87287.00;;;1.70
69597;BMP180;56802;51.184;-115.558;2022-10-16T14:47:28;87289.20;;;1.70
69597;BMP180;56802;51.184;-115.558;2022-10-16T14:49:58;87289.80;;;1.80
69597;BMP180;56802;51.184;-115.558;2022-10-16T14:52:28;87291.60;;;1.80
69597;BMP180;56802;51.184;-115.558;2022-10-16T14:54:57;87294.40;;;1.82
69597;BMP180;56802;51.184;-115.558;2022-10-16T14:57:31;87299.00;;;1.90
69597;BMP180;56802;51.184;-115.558;2022-10-16T15:00:03;87297.20;;;1.90
69597;BMP180;56802;51.184;-115.558;2022-10-16T15:02:37;87299.20;;;1.90
69597;BMP180;56802;51.184;-115.558;2022-10-16T15:05:26;87300.80;;;1.90
69597;BMP180;56802;51.184;-115.558;2022-10-16T15:07:56;87302.00;;;1.90
69597;BMP180;56802;51.184;-115.558;2022-10-16T15:10:27;87299.40;;;1.90
69597;BMP180;56802;51.184;-115.558;2022-10-16T15:12:58;87296.60;;;1.98
69597;BMP180;56802;51.184;-115.558;2022-10-16T15:15:43;87294.40;;;2.00
69597;BMP180;56802;51.184;-115.558;2022-10-16T15:18:13;87290.00;;;2.00
69597;BMP180;56802;51.184;-115.558;2022-10-16T15:20:50;87295.00;;;2.00
69597;BMP180;56802;51.184;-115.558;2022-10-16T15:23:22;87294.80;;;2.08
69597;BMP180;56802;51.184;-115.558;2022-10-16T15:25:55;87297.60;;;2.10
69597;BMP180;56802;51.184;-115.558;2022-10-16T15:28:25;87300.00;;;2.10
69597;BMP180;56802;51.184;-115.558;2022-10-16T15:30:56;87299.60;;;2.20
69597;BMP180;56802;51.184;-115.558;2022-10-16T15:33:27;87293.80;;;2.20
69597;BMP180;56802;51.184;-115.558;2022-10-16T15:36:07;87296.40;;;2.30
69597;BMP180;56802;51.184;-115.558;2022-10-16T15:38:36;87299.60;;;2.30
69597;BMP180;56802;51.184;-115.558;2022-10-16T15:41:06;87297.40;;;2.30
69597;BMP180;56802;51.184;-115.558;2022-10-16T15:43:35;87297.00;;;2.40
69597;BMP180;56802;51.184;-115.558;2022-10-16T15:46:08;87298.60;;;2.40
69597;BMP180;56802;51.184;-115.558;2022-10-16T15:48:39;87295.60;;;2.42
69597;BMP180;56802;51.184;-115.558;2022-10-16T15:51:08;87295.60;;;2.50
69597;BMP180;56802;51.184;-115.558;2022-10-16T15:53:38;87292.00;;;2.50
69597;BMP180;56802;51.184;-115.558;2022-10-16T15:56:09;87287.60;;;2.60
69597;BMP180;56802;51.184;-115.558;2022-10-16T15:58:40;87283.40;;;2.70
69597;BMP180;56802;51.184;-115.558;2022-10-16T16:01:10;87283.20;;;2.80
69597;BMP180;56802;51.184;-115.558;2022-10-16T16:03:40;87289.20;;;2.90
69597;BMP180;56802;51.184;-115.558;2022-10-16T16:06:11;87287.00;;;3.00
69597;BMP180;56802;51.184;-115.558;2022-10-16T16:08:41;87287.40;;;3.10
69597;BMP180;56802;51.184;-115.558;2022-10-16T16:11:14;87286.20;;;3.20